sensor_id;sensor_type;location;lat;lon;timestamp;temperature;humidity
32215;DHT22;18708;53.124;23.190;2022-07-10T00:01:24;13.80;99.90
32215;DHT22;18708;53.124;23.190;2022-07-10T00:03:50;13.70;99.90
32215;DHT22;18708;53.124;23.190;2022-07-10T00:06:16;13.60;99.90
32215;DHT22;18708;53.124;23.190;2022-07-10T00:08:41;13.60;99.90
32215;DHT22;18708;53.124;23.190;2022-07-10T00:11:08;13.50;99.90
32215;DHT22;18708;53.124;23.190;2022-07-10T00:13:34;13.40;99.90
32215;DHT22;18708;53.124;23.190;2022-07-10T00:15:59;13.40;99.90
32215;DHT22;18708;53.124;23.190;2022-07-10T00:18:27;13.30;99.90
32215;DHT22;18708;53.124;23.190;2022-07-10T00:20:53;13.30;99.90
32215;DHT22;18708;53.124;23.190;2022-07-10T00:23:18;13.20;99.90
32215;DHT22;18708;53.124;23.190;2022-07-10T00:25:44;13.20;99.90
32215;DHT22;18708;53.124;23.190;2022-07-10T00:28:10;13.20;99.90
32215;DHT22;18708;53.124;23.190;2022-07-10T00:30:36;13.20;99.90
32215;DHT22;18708;53.124;23.190;2022-07-10T00:33:02;13.10;99.90
32215;DHT22;18708;53.124;23.190;2022-07-10T00:35:28;12.90;99.90
32215;DHT22;18708;53.124;23.190;2022-07-10T00:37:53;12.80;99.90
32215;DHT22;18708;53.124;23.190;2022-07-10T00:40:19;12.60;99.90
32215;DHT22;18708;53.124;23.190;2022-07-10T00:42:45;12.50;99.90
32215;DHT22;18708;53.124;23.190;2022-07-10T00:45:11;12.50;99.90
32215;DHT22;18708;53.124;23.190;2022-07-10T00:47:36;12.50;99.90
32215;DHT22;18708;53.124;23.190;2022-07-10T00:50:02;12.40;99.90
32215;DHT22;18708;53.124;23.190;2022-07-10T00:52:28;12.30;99.90
32215;DHT22;18708;53.124;23.190;2022-07-10T00:54:54;12.20;99.90
32215;DHT22;18708;53.124;23.190;2022-07-10T00:57:19;12.10;99.90
32215;DHT22;18708;53.124;23.190;2022-07-10T00:59:46;12.00;99.90
32215;DHT22;18708;53.124;23.190;2022-07-10T01:02:13;11.90;99.90
32215;DHT22;18708;53.124;23.190;2022-07-10T01:04:38;11.80;99.90
32215;DHT22;18708;53.124;23.190;2022-07-10T01:07:04;11.80;99.90
32215;DHT22;18708;53.124;23.190;2022-07-10T01:09:29;11.70;99.90
32215;DHT22;18708;53.124;23.190;2022-07-10T01:11:56;11.70;99.90
32215;DHT22;18708;53.124;23.190;2022-07-10T01:14:22;11.80;99.90
32215;DHT22;18708;53.124;23.190;2022-07-10T01:16:47;11.80;99.90
32215;DHT22;18708;53.124;23.190;2022-07-10T01:19:13;11.80;99.90
32215;DHT22;18708;53.124;23.190;2022-07-10T01:21:39;11.80;99.90
32215;DHT22;18708;53.124;23.190;2022-07-10T01:24:06;11.70;99.90
32215;DHT22;18708;53.124;23.190;2022-07-10T01:26:31;11.60;99.90
32215;DHT22;18708;53.124;23.190;2022-07-10T01:28:58;11.50;99.90
32215;DHT22;18708;53.124;23.190;2022-07-10T01:31:24;11.50;99.90
32215;DHT22;18708;53.124;23.190;2022-07-10T01:33:50;11.40;99.90
32215;DHT22;18708;53.124;23.190;2022-07-10T01:36:16;11.30;99.90
32215;DHT22;18708;53.124;23.190;2022-07-10T01:38:42;11.30;99.90
32215;DHT22;18708;53.124;23.190;2022-07-10T01:41:08;11.20;99.90
32215;DHT22;18708;53.124;23.190;2022-07-10T01:43:36;11.20;99.90
32215;DHT22;18708;53.124;23.190;2022-07-10T01:46:02;11.10;99.90
32215;DHT22;18708;53.124;23.190;2022-07-10T01:48:29;11.10;99.90
32215;DHT22;18708;53.124;23.190;2022-07-10T01:50:55;11.00;99.90
32215;DHT22;18708;53.124;23.190;2022-07-10T01:53:20;10.90;99.90
32215;DHT22;18708;53.124;23.190;2022-07-10T01:55:46;10.90;99.90
32215;DHT22;18708;53.124;23.190;2022-07-10T01:58:11;10.90;99.90
32215;DHT22;18708;53.124;23.190;2022-07-10T02:00:37;10.80;99.90
32215;DHT22;18708;53.124;23.190;2022-07-10T02:03:02;10.80;99.90
32215;DHT22;18708;53.124;23.190;2022-07-10T02:05:46;10.80;99.90
32215;DHT22;18708;53.124;23.190;2022-07-10T02:08:12;10.70;99.90
32215;DHT22;18708;53.124;23.190;2022-07-10T02:10:38;10.80;99.90
32215;DHT22;18708;53.124;23.190;2022-07-10T02:13:04;10.80;99.90
32215;DHT22;18708;53.124;23.190;2022-07-10T02:15:29;10.80;99.90
32215;DHT22;18708;53.124;23.190;2022-07-10T02:17:55;10.80;99.90
32215;DHT22;18708;53.124;23.190;2022-07-10T02:20:20;10.80;99.90
32215;DHT22;18708;53.124;23.190;2022-07-10T02:22:46;10.80;99.90
32215;DHT22;18708;53.124;23.190;2022-07-10T02:25:11;10.80;99.90
32215;DHT22;18708;53.124;23.190;2022-07-10T02:27:37;10.80;99.90
32215;DHT22;18708;53.124;23.190;2022-07-10T02:30:02;10.90;99.90
32215;DHT22;18708;53.124;23.190;2022-07-10T02:32:28;10.80;99.90
32215;DHT22;18708;53.124;23.190;2022-07-10T02:34:54;10.80;99.90
32215;DHT22;18708;53.124;23.190;2022-07-10T02:37:19;10.70;99.90
32215;DHT22;18708;53.124;23.190;2022-07-10T02:39:45;10.80;99.90
32215;DHT22;18708;53.124;23.190;2022-07-10T02:42:10;10.80;99.90
32215;DHT22;18708;53.124;23.190;2022-07-10T02:44:36;11.00;99.90
32215;DHT22;18708;53.124;23.190;2022-07-10T02:47:01;11.00;99.90
32215;DHT22;18708;53.124;23.190;2022-07-10T02:49:27;11.00;99.90
32215;DHT22;18708;53.124;23.190;2022-07-10T02:51:52;11.00;99.90
32215;DHT22;18708;53.124;23.190;2022-07-10T02:54:18;11.00;99.90
32215;DHT22;18708;53.124;23.190;2022-07-10T02:56:44;10.40;99.90
32215;DHT22;18708;53.124;23.190;2022-07-10T02:59:09;11.10;99.90
32215;DHT22;18708;53.124;23.190;2022-07-10T03:01:35;11.20;99.90
32215;DHT22;18708;53.124;23.190;2022-07-10T03:04:00;11.30;99.90
32215;DHT22;18708;53.124;23.190;2022-07-10T03:06:26;11.30;99.90
32215;DHT22;18708;53.124;23.190;2022-07-10T03:08:52;11.30;99.90
32215;DHT22;18708;53.124;23.190;2022-07-10T03:11:18;11.30;99.90
32215;DHT22;18708;53.124;23.190;2022-07-10T03:13:43;11.40;99.90
32215;DHT22;18708;53.124;23.190;2022-07-10T03:16:09;11.40;99.90
32215;DHT22;18708;53.124;23.190;2022-07-10T03:18:34;11.40;99.90
32215;DHT22;18708;53.124;23.190;2022-07-10T03:21:00;11.40;99.90
32215;DHT22;18708;53.124;23.190;2022-07-10T03:23:25;11.50;99.90
32215;DHT22;18708;53.124;23.190;2022-07-10T03:25:51;11.60;99.90
32215;DHT22;18708;53.124;23.190;2022-07-10T03:28:17;11.80;99.90
32215;DHT22;18708;53.124;23.190;2022-07-10T03:30:42;11.90;99.90
32215;DHT22;18708;53.124;23.190;2022-07-10T03:33:08;12.00;99.90
32215;DHT22;18708;53.124;23.190;2022-07-10T03:35:33;12.00;99.90
32215;DHT22;18708;53.124;23.190;2022-07-10T03:37:59;12.10;99.90
32215;DHT22;18708;53.124;23.190;2022-07-10T03:40:24;12.10;99.90
32215;DHT22;18708;53.124;23.190;2022-07-10T03:42:51;12.20;99.90
32215;DHT22;18708;53.124;23.190;2022-07-10T03:45:17;12.20;99.90
32215;DHT22;18708;53.124;23.190;2022-07-10T03:47:43;12.20;99.90
32215;DHT22;18708;53.124;23.190;2022-07-10T03:50:08;12.20;99.90
32215;DHT22;18708;53.124;23.190;2022-07-10T03:52:34;12.20;99.90
32215;DHT22;18708;53.124;23.190;2022-07-10T03:55:00;12.20;99.90
32215;DHT22;18708;53.124;23.190;2022-07-10T03:57:26;12.30;99.90
32215;DHT22;18708;53.124;23.190;2022-07-10T04:00:10;12.30;99.90
32215;DHT22;18708;53.124;23.190;2022-07-10T04:02:37;12.30;99.90
32215;DHT22;18708;53.124;23.190;2022-07-10T04:05:06;12.40;99.90
32215;DHT22;18708;53.124;23.190;2022-07-10T04:07:31;12.60;99.90
32215;DHT22;18708;53.124;23.190;2022-07-10T04:09:57;12.70;99.90
32215;DHT22;18708;53.124;23.190;2022-07-10T04:12:22;12.70;99.90
32215;DHT22;18708;53.124;23.190;2022-07-10T04:14:48;12.90;99.90
32215;DHT22;18708;53.124;23.190;2022-07-10T04:17:17;13.00;99.90
32215;DHT22;18708;53.124;23.190;2022-07-10T04:19:42;13.20;99.90
32215;DHT22;18708;53.124;23.190;2022-07-10T04:22:08;13.20;99.90
32215;DHT22;18708;53.124;23.190;2022-07-10T04:24:33;13.30;99.90
32215;DHT22;18708;53.124;23.190;2022-07-10T04:26:59;13.30;99.90
32215;DHT22;18708;53.124;23.190;2022-07-10T04:29:25;13.50;99.90
32215;DHT22;18708;53.124;23.190;2022-07-10T04:31:50;13.50;99.90
32215;DHT22;18708;53.124;23.190;2022-07-10T04:34:16;13.80;99.90
32215;DHT22;18708;53.124;23.190;2022-07-10T04:36:41;14.00;99.90
32215;DHT22;18708;53.124;23.190;2022-07-10T04:39:07;14.20;99.90
32215;DHT22;18708;53.124;23.190;2022-07-10T04:41:32;14.40;99.90
32215;DHT22;18708;53.124;23.190;2022-07-10T04:43:58;14.50;99.90
32215;DHT22;18708;53.124;23.190;2022-07-10T04:46:23;14.70;99.90
32215;DHT22;18708;53.124;23.190;2022-07-10T04:48:49;14.80;99.90
32215;DHT22;18708;53.124;23.190;2022-07-10T04:51:16;14.90;99.90
32215;DHT22;18708;53.124;23.190;2022-07-10T04:53:41;15.10;99.90
32215;DHT22;18708;53.124;23.190;2022-07-10T04:56:07;15.10;99.90
32215;DHT22;18708;53.124;23.190;2022-07-10T04:58:32;15.10;99.90
32215;DHT22;18708;53.124;23.190;2022-07-10T05:00:58;15.20;99.90
32215;DHT22;18708;53.124;23.190;2022-07-10T05:03:23;15.20;99.90
32215;DHT22;18708;53.124;23.190;2022-07-10T05:05:49;15.20;99.90
32215;DHT22;18708;53.124;23.190;2022-07-10T05:08:14;15.30;99.90
32215;DHT22;18708;53.124;23.190;2022-07-10T05:10:40;15.30;99.90
32215;DHT22;18708;53.124;23.190;2022-07-10T05:13:05;15.30;99.90
32215;DHT22;18708;53.124;23.190;2022-07-10T05:15:31;15.40;99.90
32215;DHT22;18708;53.124;23.190;2022-07-10T05:17:57;15.40;99.90
32215;DHT22;18708;53.124;23.190;2022-07-10T05:20:23;15.40;99.90
32215;DHT22;18708;53.124;23.190;2022-07-10T05:22:48;15.40;99.90
32215;DHT22;18708;53.124;23.190;2022-07-10T05:25:14;15.40;99.90
32215;DHT22;18708;53.124;23.190;2022-07-10T05:27:39;15.40;99.90
32215;DHT22;18708;53.124;23.190;2022-07-10T05:30:05;15.30;99.90
32215;DHT22;18708;53.124;23.190;2022-07-10T05:32:31;15.30;99.90
32215;DHT22;18708;53.124;23.190;2022-07-10T05:34:59;15.40;99.90
32215;DHT22;18708;53.124;23.190;2022-07-10T05:37:25;15.60;99.90
32215;DHT22;18708;53.124;23.190;2022-07-10T05:39:50;15.70;99.90
32215;DHT22;18708;53.124;23.190;2022-07-10T05:42:16;15.70;99.90
32215;DHT22;18708;53.124;23.190;2022-07-10T05:44:41;15.80;99.90
32215;DHT22;18708;53.124;23.190;2022-07-10T05:47:07;15.90;99.90
32215;DHT22;18708;53.124;23.190;2022-07-10T05:49:32;16.00;99.90
32215;DHT22;18708;53.124;23.190;2022-07-10T05:51:58;16.00;99.90
32215;DHT22;18708;53.124;23.190;2022-07-10T05:54:24;16.00;99.90
32215;DHT22;18708;53.124;23.190;2022-07-10T05:56:49;16.10;99.90
32215;DHT22;18708;53.124;23.190;2022-07-10T05:59:16;16.20;99.90
32215;DHT22;18708;53.124;23.190;2022-07-10T06:01:41;16.40;99.90
32215;DHT22;18708;53.124;23.190;2022-07-10T06:04:07;16.60;99.90
32215;DHT22;18708;53.124;23.190;2022-07-10T06:06:32;16.70;99.90
32215;DHT22;18708;53.124;23.190;2022-07-10T06:08:58;16.80;99.90
32215;DHT22;18708;53.124;23.190;2022-07-10T06:11:24;16.80;99.90
32215;DHT22;18708;53.124;23.190;2022-07-10T06:13:50;16.80;99.90
32215;DHT22;18708;53.124;23.190;2022-07-10T06:16:15;16.80;99.90
32215;DHT22;18708;53.124;23.190;2022-07-10T06:18:41;16.80;99.90
32215;DHT22;18708;53.124;23.190;2022-07-10T06:21:06;16.90;99.90
32215;DHT22;18708;53.124;23.190;2022-07-10T06:23:33;16.90;99.90
32215;DHT22;18708;53.124;23.190;2022-07-10T06:25:59;16.90;99.90
32215;DHT22;18708;53.124;23.190;2022-07-10T06:28:24;17.10;99.90
32215;DHT22;18708;53.124;23.190;2022-07-10T06:30:50;17.20;99.90
32215;DHT22;18708;53.124;23.190;2022-07-10T06:33:16;17.40;99.90
32215;DHT22;18708;53.124;23.190;2022-07-10T06:35:42;17.70;99.90
32215;DHT22;18708;53.124;23.190;2022-07-10T06:38:08;18.10;99.90
32215;DHT22;18708;53.124;23.190;2022-07-10T06:40:35;18.60;99.90
32215;DHT22;18708;53.124;23.190;2022-07-10T06:43:01;19.00;99.90
32215;DHT22;18708;53.124;23.190;2022-07-10T06:45:26;18.40;99.90
32215;DHT22;18708;53.124;23.190;2022-07-10T06:47:52;18.40;99.90
32215;DHT22;18708;53.124;23.190;2022-07-10T06:50:29;16.20;99.90
32215;DHT22;18708;53.124;23.190;2022-07-10T06:53:00;18.30;99.90
32215;DHT22;18708;53.124;23.190;2022-07-10T06:55:26;18.80;99.90
32215;DHT22;18708;53.124;23.190;2022-07-10T06:57:52;18.60;99.90
32215;DHT22;18708;53.124;23.190;2022-07-10T07:00:17;19.00;99.90
32215;DHT22;18708;53.124;23.190;2022-07-10T07:02:43;18.80;99.90
32215;DHT22;18708;53.124;23.190;2022-07-10T07:05:09;18.50;99.90
32215;DHT22;18708;53.124;23.190;2022-07-10T07:07:35;18.50;99.90
32215;DHT22;18708;53.124;23.190;2022-07-10T07:10:01;19.30;99.90
32215;DHT22;18708;53.124;23.190;2022-07-10T07:12:27;19.10;99.90
32215;DHT22;18708;53.124;23.190;2022-07-10T07:14:53;19.20;99.90
32215;DHT22;18708;53.124;23.190;2022-07-10T07:17:18;20.00;99.90
32215;DHT22;18708;53.124;23.190;2022-07-10T07:19:51;20.20;99.90
32215;DHT22;18708;53.124;23.190;2022-07-10T07:22:36;20.70;99.90
32215;DHT22;18708;53.124;23.190;2022-07-10T07:25:20;20.50;96.70
32215;DHT22;18708;53.124;23.190;2022-07-10T07:27:46;20.50;97.30
32215;DHT22;18708;53.124;23.190;2022-07-10T07:30:12;20.80;97.70
32215;DHT22;18708;53.124;23.190;2022-07-10T07:32:40;20.70;94.40
32215;DHT22;18708;53.124;23.190;2022-07-10T07:35:06;20.60;93.60
32215;DHT22;18708;53.124;23.190;2022-07-10T07:37:35;20.80;96.00
32215;DHT22;18708;53.124;23.190;2022-07-10T07:40:02;21.50;94.10
32215;DHT22;18708;53.124;23.190;2022-07-10T07:42:28;22.40;93.90
32215;DHT22;18708;53.124;23.190;2022-07-10T07:44:53;22.90;92.50
32215;DHT22;18708;53.124;23.190;2022-07-10T07:47:19;22.10;88.50
32215;DHT22;18708;53.124;23.190;2022-07-10T07:49:44;21.20;91.00
32215;DHT22;18708;53.124;23.190;2022-07-10T07:52:10;20.50;90.20
32215;DHT22;18708;53.124;23.190;2022-07-10T07:54:36;20.20;92.10
32215;DHT22;18708;53.124;23.190;2022-07-10T07:57:01;20.40;94.00
32215;DHT22;18708;53.124;23.190;2022-07-10T07:59:27;19.30;92.60
32215;DHT22;18708;53.124;23.190;2022-07-10T08:01:52;20.70;93.60
32215;DHT22;18708;53.124;23.190;2022-07-10T08:04:18;20.80;91.10
32215;DHT22;18708;53.124;23.190;2022-07-10T08:06:43;21.30;91.90
32215;DHT22;18708;53.124;23.190;2022-07-10T08:09:09;21.50;87.80
32215;DHT22;18708;53.124;23.190;2022-07-10T08:11:34;21.30;87.40
32215;DHT22;18708;53.124;23.190;2022-07-10T08:14:00;20.80;87.20
32215;DHT22;18708;53.124;23.190;2022-07-10T08:16:26;20.40;89.90
32215;DHT22;18708;53.124;23.190;2022-07-10T08:18:51;20.00;90.40
32215;DHT22;18708;53.124;23.190;2022-07-10T08:21:17;20.20;94.80
32215;DHT22;18708;53.124;23.190;2022-07-10T08:23:42;20.40;90.60
32215;DHT22;18708;53.124;23.190;2022-07-10T08:26:08;20.50;90.80
32215;DHT22;18708;53.124;23.190;2022-07-10T08:28:33;20.30;91.10
32215;DHT22;18708;53.124;23.190;2022-07-10T08:30:59;19.90;90.40
32215;DHT22;18708;53.124;23.190;2022-07-10T08:33:24;20.00;92.10
32215;DHT22;18708;53.124;23.190;2022-07-10T08:35:50;20.00;92.40
32215;DHT22;18708;53.124;23.190;2022-07-10T08:38:15;18.60;90.50
32215;DHT22;18708;53.124;23.190;2022-07-10T08:40:41;19.50;91.50
32215;DHT22;18708;53.124;23.190;2022-07-10T08:43:08;19.40;94.20
32215;DHT22;18708;53.124;23.190;2022-07-10T08:45:34;19.30;92.50
32215;DHT22;18708;53.124;23.190;2022-07-10T08:48:03;19.30;92.50
32215;DHT22;18708;53.124;23.190;2022-07-10T08:50:32;19.20;92.10
32215;DHT22;18708;53.124;23.190;2022-07-10T08:55:27;19.20;90.80
32215;DHT22;18708;53.124;23.190;2022-07-10T08:57:53;19.20;89.70
32215;DHT22;18708;53.124;23.190;2022-07-10T09:00:20;19.00;90.90
32215;DHT22;18708;53.124;23.190;2022-07-10T09:02:45;19.60;91.00
32215;DHT22;18708;53.124;23.190;2022-07-10T09:05:11;20.00;89.20
32215;DHT22;18708;53.124;23.190;2022-07-10T09:07:36;20.10;89.10
32215;DHT22;18708;53.124;23.190;2022-07-10T09:10:06;20.00;88.30
32215;DHT22;18708;53.124;23.190;2022-07-10T09:12:38;22.10;86.20
32215;DHT22;18708;53.124;23.190;2022-07-10T09:15:14;22.10;83.50
32215;DHT22;18708;53.124;23.190;2022-07-10T09:17:53;22.40;81.60
32215;DHT22;18708;53.124;23.190;2022-07-10T09:20:26;22.30;83.20
32215;DHT22;18708;53.124;23.190;2022-07-10T09:22:52;23.00;80.50
32215;DHT22;18708;53.124;23.190;2022-07-10T09:25:17;23.60;82.00
32215;DHT22;18708;53.124;23.190;2022-07-10T09:27:53;24.40;81.90
32215;DHT22;18708;53.124;23.190;2022-07-10T09:35:55;24.50;70.00
32215;DHT22;18708;53.124;23.190;2022-07-10T09:41:14;24.30;75.10
32215;DHT22;18708;53.124;23.190;2022-07-10T09:46:09;25.00;74.10
32215;DHT22;18708;53.124;23.190;2022-07-10T09:48:34;24.40;70.30
32215;DHT22;18708;53.124;23.190;2022-07-10T09:51:00;23.80;72.40
32215;DHT22;18708;53.124;23.190;2022-07-10T09:53:26;22.90;74.50
32215;DHT22;18708;53.124;23.190;2022-07-10T09:55:53;22.00;79.70
32215;DHT22;18708;53.124;23.190;2022-07-10T09:58:20;21.40;81.00
32215;DHT22;18708;53.124;23.190;2022-07-10T10:00:47;21.30;83.00
32215;DHT22;18708;53.124;23.190;2022-07-10T10:03:13;21.20;84.10
32215;DHT22;18708;53.124;23.190;2022-07-10T10:05:44;21.00;81.20
32215;DHT22;18708;53.124;23.190;2022-07-10T10:08:27;21.00;85.50
32215;DHT22;18708;53.124;23.190;2022-07-10T10:10:55;20.80;81.60
32215;DHT22;18708;53.124;23.190;2022-07-10T10:13:22;20.60;85.60
32215;DHT22;18708;53.124;23.190;2022-07-10T10:15:48;20.60;86.10
32215;DHT22;18708;53.124;23.190;2022-07-10T10:18:18;20.60;84.30
32215;DHT22;18708;53.124;23.190;2022-07-10T10:20:45;21.00;85.60
32215;DHT22;18708;53.124;23.190;2022-07-10T10:23:29;21.30;87.00
32215;DHT22;18708;53.124;23.190;2022-07-10T10:25:56;22.00;87.50
32215;DHT22;18708;53.124;23.190;2022-07-10T10:28:23;22.90;77.30
32215;DHT22;18708;53.124;23.190;2022-07-10T10:30:58;21.90;82.20
32215;DHT22;18708;53.124;23.190;2022-07-10T10:36:09;20.40;83.70
32215;DHT22;18708;53.124;23.190;2022-07-10T10:41:24;20.10;84.50
32215;DHT22;18708;53.124;23.190;2022-07-10T10:46:57;19.30;86.10
32215;DHT22;18708;53.124;23.190;2022-07-10T10:49:26;19.20;89.60
32215;DHT22;18708;53.124;23.190;2022-07-10T10:57:22;19.60;90.40
32215;DHT22;18708;53.124;23.190;2022-07-10T11:04:51;19.80;88.00
32215;DHT22;18708;53.124;23.190;2022-07-10T11:10:25;20.00;86.60
32215;DHT22;18708;53.124;23.190;2022-07-10T11:15:29;20.30;88.30
32215;DHT22;18708;53.124;23.190;2022-07-10T11:18:14;20.40;86.80
32215;DHT22;18708;53.124;23.190;2022-07-10T11:26:03;22.10;82.20
32215;DHT22;18708;53.124;23.190;2022-07-10T11:31:14;23.30;78.20
32215;DHT22;18708;53.124;23.190;2022-07-10T11:33:40;23.40;79.40
32215;DHT22;18708;53.124;23.190;2022-07-10T11:36:11;23.80;78.00
32215;DHT22;18708;53.124;23.190;2022-07-10T11:38:40;23.60;73.00
32215;DHT22;18708;53.124;23.190;2022-07-10T11:41:15;22.70;75.80
32215;DHT22;18708;53.124;23.190;2022-07-10T11:44:00;22.40;75.10
32215;DHT22;18708;53.124;23.190;2022-07-10T11:46:27;22.40;75.00
32215;DHT22;18708;53.124;23.190;2022-07-10T11:48:53;22.60;76.30
32215;DHT22;18708;53.124;23.190;2022-07-10T11:53:54;22.30;79.30
32215;DHT22;18708;53.124;23.190;2022-07-10T11:56:20;22.20;77.30
32215;DHT22;18708;53.124;23.190;2022-07-10T11:58:56;22.00;75.80
32215;DHT22;18708;53.124;23.190;2022-07-10T12:01:21;21.70;79.40
32215;DHT22;18708;53.124;23.190;2022-07-10T12:04:21;21.50;78.00
32215;DHT22;18708;53.124;23.190;2022-07-10T12:06:42;21.30;79.20
32215;DHT22;18708;53.124;23.190;2022-07-10T12:09:12;21.10;78.60
32215;DHT22;18708;53.124;23.190;2022-07-10T12:11:40;21.10;80.00
32215;DHT22;18708;53.124;23.190;2022-07-10T12:14:17;21.10;79.30
32215;DHT22;18708;53.124;23.190;2022-07-10T12:16:44;21.30;77.60
32215;DHT22;18708;53.124;23.190;2022-07-10T12:19:14;21.70;79.20
32215;DHT22;18708;53.124;23.190;2022-07-10T12:21:43;21.90;75.90
32215;DHT22;18708;53.124;23.190;2022-07-10T12:24:09;21.80;76.40
32215;DHT22;18708;53.124;23.190;2022-07-10T12:26:36;21.80;78.30
32215;DHT22;18708;53.124;23.190;2022-07-10T12:29:03;21.70;77.50
32215;DHT22;18708;53.124;23.190;2022-07-10T12:31:29;21.70;76.50
32215;DHT22;18708;53.124;23.190;2022-07-10T12:34:03;21.60;78.40
32215;DHT22;18708;53.124;23.190;2022-07-10T12:39:14;21.40;76.10
32215;DHT22;18708;53.124;23.190;2022-07-10T12:49:27;20.80;79.00
32215;DHT22;18708;53.124;23.190;2022-07-10T12:51:53;20.70;77.70
32215;DHT22;18708;53.124;23.190;2022-07-10T12:54:35;21.20;79.60
32215;DHT22;18708;53.124;23.190;2022-07-10T12:57:00;21.40;80.50
32215;DHT22;18708;53.124;23.190;2022-07-10T12:59:26;21.70;81.40
32215;DHT22;18708;53.124;23.190;2022-07-10T13:01:52;19.40;76.10
32215;DHT22;18708;53.124;23.190;2022-07-10T13:04:24;21.90;79.20
32215;DHT22;18708;53.124;23.190;2022-07-10T13:06:52;21.60;78.50
32215;DHT22;18708;53.124;23.190;2022-07-10T13:09:26;21.30;82.70
32215;DHT22;18708;53.124;23.190;2022-07-10T13:11:53;21.80;80.00
32215;DHT22;18708;53.124;23.190;2022-07-10T13:14:19;22.30;82.40
32215;DHT22;18708;53.124;23.190;2022-07-10T13:16:44;22.60;74.70
32215;DHT22;18708;53.124;23.190;2022-07-10T13:19:10;23.00;78.30
32215;DHT22;18708;53.124;23.190;2022-07-10T13:21:36;23.20;74.50
32215;DHT22;18708;53.124;23.190;2022-07-10T13:24:02;22.90;75.80
32215;DHT22;18708;53.124;23.190;2022-07-10T13:26:29;22.90;78.30
32215;DHT22;18708;53.124;23.190;2022-07-10T13:28:55;22.40;73.60
32215;DHT22;18708;53.124;23.190;2022-07-10T13:31:20;22.10;76.10
32215;DHT22;18708;53.124;23.190;2022-07-10T13:33:46;21.80;75.90
32215;DHT22;18708;53.124;23.190;2022-07-10T13:36:11;19.50;74.10
32215;DHT22;18708;53.124;23.190;2022-07-10T13:38:37;21.60;75.80
32215;DHT22;18708;53.124;23.190;2022-07-10T13:41:03;21.40;74.50
32215;DHT22;18708;53.124;23.190;2022-07-10T13:43:28;21.30;74.80
32215;DHT22;18708;53.124;23.190;2022-07-10T13:45:58;21.30;77.40
32215;DHT22;18708;53.124;23.190;2022-07-10T13:48:24;21.30;77.20
32215;DHT22;18708;53.124;23.190;2022-07-10T13:50:51;21.20;77.50
32215;DHT22;18708;53.124;23.190;2022-07-10T13:53:17;21.10;79.70
32215;DHT22;18708;53.124;23.190;2022-07-10T13:55:43;21.30;79.40
32215;DHT22;18708;53.124;23.190;2022-07-10T13:58:09;21.90;83.50
32215;DHT22;18708;53.124;23.190;2022-07-10T14:00:35;22.40;79.60
32215;DHT22;18708;53.124;23.190;2022-07-10T14:03:01;22.70;78.30
32215;DHT22;18708;53.124;23.190;2022-07-10T14:05:27;22.80;75.70
32215;DHT22;18708;53.124;23.190;2022-07-10T14:07:52;22.40;77.30
32215;DHT22;18708;53.124;23.190;2022-07-10T14:10:18;22.20;78.30
32215;DHT22;18708;53.124;23.190;2022-07-10T14:12:43;22.00;77.50
32215;DHT22;18708;53.124;23.190;2022-07-10T14:15:09;22.00;80.60
32215;DHT22;18708;53.124;23.190;2022-07-10T14:17:35;22.30;79.60
32215;DHT22;18708;53.124;23.190;2022-07-10T14:20:01;22.30;80.90
32215;DHT22;18708;53.124;23.190;2022-07-10T14:22:26;22.40;77.00
32215;DHT22;18708;53.124;23.190;2022-07-10T14:24:53;22.40;74.10
32215;DHT22;18708;53.124;23.190;2022-07-10T14:27:21;22.30;72.50
32215;DHT22;18708;53.124;23.190;2022-07-10T14:29:48;22.30;70.60
32215;DHT22;18708;53.124;23.190;2022-07-10T14:32:14;22.30;71.80
32215;DHT22;18708;53.124;23.190;2022-07-10T14:34:39;22.10;75.10
32215;DHT22;18708;53.124;23.190;2022-07-10T14:37:05;22.00;76.10
32215;DHT22;18708;53.124;23.190;2022-07-10T14:39:30;22.20;77.40
32215;DHT22;18708;53.124;23.190;2022-07-10T14:41:56;21.80;78.90
32215;DHT22;18708;53.124;23.190;2022-07-10T14:44:21;21.60;80.00
32215;DHT22;18708;53.124;23.190;2022-07-10T14:46:47;21.40;77.70
32215;DHT22;18708;53.124;23.190;2022-07-10T14:49:12;21.10;80.00
32215;DHT22;18708;53.124;23.190;2022-07-10T14:51:38;21.10;80.60
32215;DHT22;18708;53.124;23.190;2022-07-10T14:54:04;21.00;80.50
32215;DHT22;18708;53.124;23.190;2022-07-10T14:56:30;20.80;79.60
32215;DHT22;18708;53.124;23.190;2022-07-10T14:58:55;21.20;78.00
32215;DHT22;18708;53.124;23.190;2022-07-10T15:01:21;21.40;75.20
32215;DHT22;18708;53.124;23.190;2022-07-10T15:03:46;21.70;75.40
32215;DHT22;18708;53.124;23.190;2022-07-10T15:06:12;21.90;75.00
32215;DHT22;18708;53.124;23.190;2022-07-10T15:08:37;22.20;75.30
32215;DHT22;18708;53.124;23.190;2022-07-10T15:11:03;22.20;74.20
32215;DHT22;18708;53.124;23.190;2022-07-10T15:13:30;22.10;72.20
32215;DHT22;18708;53.124;23.190;2022-07-10T15:15:56;22.10;75.00
32215;DHT22;18708;53.124;23.190;2022-07-10T15:18:21;21.80;77.20
32215;DHT22;18708;53.124;23.190;2022-07-10T15:20:47;21.90;76.40
32215;DHT22;18708;53.124;23.190;2022-07-10T15:23:13;21.70;75.90
32215;DHT22;18708;53.124;23.190;2022-07-10T15:25:39;21.60;77.90
32215;DHT22;18708;53.124;23.190;2022-07-10T15:28:06;21.40;78.60
32215;DHT22;18708;53.124;23.190;2022-07-10T15:30:33;21.10;81.40
32215;DHT22;18708;53.124;23.190;2022-07-10T15:32:58;20.90;83.40
32215;DHT22;18708;53.124;23.190;2022-07-10T15:35:24;20.60;84.70
32215;DHT22;18708;53.124;23.190;2022-07-10T15:37:49;20.40;85.40
32215;DHT22;18708;53.124;23.190;2022-07-10T15:40:15;20.30;85.20
32215;DHT22;18708;53.124;23.190;2022-07-10T15:42:41;20.20;84.20
32215;DHT22;18708;53.124;23.190;2022-07-10T15:45:07;20.00;83.30
32215;DHT22;18708;53.124;23.190;2022-07-10T15:47:32;19.90;83.10
32215;DHT22;18708;53.124;23.190;2022-07-10T15:49:58;19.90;84.60
32215;DHT22;18708;53.124;23.190;2022-07-10T15:52:23;19.90;83.90
32215;DHT22;18708;53.124;23.190;2022-07-10T15:54:49;20.00;86.10
32215;DHT22;18708;53.124;23.190;2022-07-10T15:57:15;19.90;84.40
32215;DHT22;18708;53.124;23.190;2022-07-10T15:59:40;19.90;83.70
32215;DHT22;18708;53.124;23.190;2022-07-10T16:02:06;19.70;84.00
32215;DHT22;18708;53.124;23.190;2022-07-10T16:04:32;19.60;86.10
32215;DHT22;18708;53.124;23.190;2022-07-10T16:06:58;19.60;85.40
32215;DHT22;18708;53.124;23.190;2022-07-10T16:09:23;19.30;86.10
32215;DHT22;18708;53.124;23.190;2022-07-10T16:11:49;19.10;87.10